Time,TemperatureF,DewpointF,PressureIn,WindDirection,WindDirectionDegrees,WindSpeedMPH,WindSpeedGustMPH,Humidity,HourlyPrecipIn,Conditions,Clouds,dailyrainin,SoftwareType,DateUTC
2013-01-18 00:02:00,18.0,11.0,30.48,NNW,348,0.0,0.0,73,-99.99,,,0.00,,2013-01-18 07:02:00,
2013-01-18 00:12:00,19.0,12.0,30.48,NNW,348,0.0,2.0,74,-99.99,,,0.00,,2013-01-18 07:12:00,
2013-01-18 00:22:00,19.0,12.0,30.48,NNW,348,0.0,2.0,74,-99.99,,,0.00,,2013-01-18 07:22:00,
2013-01-18 00:30:00,18.0,11.0,30.48,NNW,348,0.0,1.0,73,-99.99,,,0.00,,2013-01-18 07:30:00,
2013-01-18 00:32:00,18.0,11.0,30.49,NNW,348,0.0,0.0,74,-99.99,,,0.00,,2013-01-18 07:32:00,
2013-01-18 00:42:00,18.0,11.0,30.49,NNW,348,0.0,0.0,74,-99.99,,,0.00,,2013-01-18 07:42:00,
2013-01-18 00:52:00,18.0,11.0,30.49,NNW,348,0.0,0.0,74,-99.99,,,0.00,,2013-01-18 07:52:00,
2013-01-18 01:02:00,18.0,11.0,30.48,NNW,348,0.0,1.0,73,-99.99,,,0.00,,2013-01-18 08:02:00,
2013-01-18 01:11:00,18.0,11.0,30.48,NNW,348,0.0,1.0,73,-99.99,,,0.00,,2013-01-18 08:11:00,
2013-01-18 01:22:00,18.0,11.0,30.48,NNW,348,0.0,1.0,73,-99.99,,,0.00,,2013-01-18 08:22:00,
2013-01-18 01:42:00,18.0,10.0,30.48,NNW,348,1.0,2.0,73,-99.99,,,0.00,,2013-01-18 08:42:00,
2013-01-18 01:53:00,18.0,10.0,30.48,NNW,348,1.0,2.0,73,-99.99,,,0.00,,2013-01-18 08:53:00,
2013-01-18 02:02:00,17.0,10.0,30.50,NNW,348,0.0,1.0,74,-99.99,,,0.00,,2013-01-18 09:02:00,
2013-01-18 02:12:00,16.0,10.0,30.50,NNW,348,0.0,1.0,75,-99.99,,,0.00,,2013-01-18 09:12:00,
2013-01-18 02:22:00,16.0,10.0,30.50,NNW,348,0.0,1.0,75,-99.99,,,0.00,,2013-01-18 09:22:00,
2013-01-18 02:32:00,16.0,10.0,30.50,NNW,348,0.0,0.0,76,-99.99,,,0.00,,2013-01-18 09:32:00,
2013-01-18 02:42:00,16.0,10.0,30.50,NNW,348,0.0,0.0,77,-99.99,,,0.00,,2013-01-18 09:42:00,
2013-01-18 02:52:00,16.0,10.0,30.50,NNW,348,0.0,0.0,77,-99.99,,,0.00,,2013-01-18 09:52:00,
2013-01-18 03:02:00,15.0,9.0,30.49,NNW,348,0.0,0.0,77,-99.99,,,-99.99,,2013-01-18 10:02:00,
2013-01-18 03:12:00,16.0,10.0,30.49,NNW,348,0.0,2.0,78,-99.99,,,0.00,,2013-01-18 10:12:00,
2013-01-18 03:22:00,16.0,10.0,30.49,NNW,348,0.0,2.0,78,-99.99,,,0.00,,2013-01-18 10:22:00,
2013-01-18 03:32:00,15.0,9.0,30.50,NNW,348,0.0,2.0,77,-99.99,,,0.00,,2013-01-18 10:32:00,
2013-01-18 03:42:00,15.0,9.0,30.50,NNW,348,0.0,2.0,77,-99.99,,,0.00,,2013-01-18 10:42:00,
2013-01-18 03:52:00,15.0,9.0,30.50,NNW,348,0.0,2.0,77,-99.99,,,0.00,,2013-01-18 10:52:00,
2013-01-18 04:02:00,14.0,9.0,30.49,NNW,348,0.0,2.0,77,-99.99,,,0.00,,2013-01-18 11:02:00,
2013-01-18 04:12:00,14.0,8.0,30.49,NNW,348,0.0,2.0,78,-99.99,,,0.00,,2013-01-18 11:12:00,
2013-01-18 04:22:00,14.0,8.0,30.49,NNW,348,0.0,2.0,78,-99.99,,,0.00,,2013-01-18 11:22:00,
2013-01-18 04:32:00,14.0,9.0,30.49,NNW,348,1.0,2.0,79,-99.99,,,0.00,,2013-01-18 11:32:00,
2013-01-18 04:42:00,14.0,9.0,30.50,NNW,348,1.0,3.0,79,-99.99,,,0.00,,2013-01-18 11:42:00,
2013-01-18 04:53:00,14.0,8.0,30.50,NNW,348,0.0,2.0,78,-99.99,,,0.00,,2013-01-18 11:53:00,
2013-01-18 05:02:00,14.0,8.0,30.50,NNW,348,0.0,2.0,78,-99.99,,,0.00,,2013-01-18 12:02:00,
2013-01-18 05:12:00,13.0,7.0,30.51,NNW,348,1.0,2.0,78,-99.99,,,0.00,,2013-01-18 12:12:00,
2013-01-18 05:22:00,13.0,7.0,30.51,NNW,348,1.0,2.0,78,-99.99,,,0.00,,2013-01-18 12:22:00,
2013-01-18 05:32:00,12.0,7.0,30.50,NNW,348,0.0,2.0,79,-99.99,,,0.00,,2013-01-18 12:32:00,
2013-01-18 05:42:00,12.0,7.0,30.50,NNW,348,0.0,2.0,80,-99.99,,,0.00,,2013-01-18 12:42:00,
2013-01-18 05:53:00,12.0,7.0,30.50,NNW,348,0.0,2.0,80,-99.99,,,0.00,,2013-01-18 12:53:00,
2013-01-18 06:02:00,13.0,8.0,30.54,NNW,348,0.0,0.0,80,-99.99,,,0.00,,2013-01-18 13:02:00,
2013-01-18 06:12:00,12.0,7.0,30.56,NNW,348,0.0,0.0,80,-99.99,,,0.00,,2013-01-18 13:12:00,
2013-01-18 06:22:00,12.0,7.0,30.56,NNW,348,0.0,0.0,80,-99.99,,,0.00,,2013-01-18 13:22:00,
2013-01-18 06:33:00,13.0,8.0,30.54,NNW,348,0.0,2.0,81,-99.99,,,0.00,,2013-01-18 13:33:00,
2013-01-18 06:43:00,13.0,8.0,30.54,NNW,348,0.0,2.0,81,-99.99,,,0.00,,2013-01-18 13:43:00,
2013-01-18 06:53:00,13.0,8.0,30.54,NNW,348,0.0,2.0,81,-99.99,,,0.00,,2013-01-18 13:53:00,
2013-01-18 07:03:00,12.0,7.0,30.59,NNW,348,0.0,0.0,80,-99.99,,,-99.99,,2013-01-18 14:03:00,
2013-01-18 07:12:00,12.0,7.0,30.59,NNW,348,0.0,0.0,81,-99.99,,,0.00,,2013-01-18 14:12:00,
2013-01-18 07:22:00,12.0,7.0,30.59,NNW,348,0.0,0.0,81,-99.99,,,0.00,,2013-01-18 14:22:00,
2013-01-18 07:33:00,11.0,7.0,30.60,NNW,348,0.0,0.0,81,-99.99,,,0.00,,2013-01-18 14:33:00,
2013-01-18 07:42:00,12.0,8.0,30.60,NNW,348,0.0,0.0,82,-99.99,,,0.00,,2013-01-18 14:42:00,
2013-01-18 07:53:00,12.0,8.0,30.60,NNW,348,0.0,0.0,82,-99.99,,,0.00,,2013-01-18 14:53:00,
2013-01-18 08:02:00,12.0,8.0,30.62,NNW,348,0.0,0.0,82,-99.99,,,0.00,,2013-01-18 15:02:00,
2013-01-18 08:12:00,12.0,7.0,30.62,NNW,348,2.0,2.0,81,-99.99,,,0.00,,2013-01-18 15:12:00,
2013-01-18 08:23:00,12.0,7.0,30.62,NNW,348,2.0,2.0,81,-99.99,,,0.00,,2013-01-18 15:23:00,
2013-01-18 08:33:00,14.0,9.0,30.61,NNW,348,0.0,2.0,80,-99.99,,,0.00,,2013-01-18 15:33:00,
2013-01-18 08:43:00,14.0,9.0,30.61,NNW,348,0.0,2.0,80,-99.99,,,0.00,,2013-01-18 15:43:00,
2013-01-18 08:53:00,14.0,8.0,30.60,NNW,348,0.0,1.0,77,-99.99,,,0.00,,2013-01-18 15:53:00,
2013-01-18 09:02:00,14.0,8.0,30.60,NNW,348,0.0,1.0,77,-99.99,,,0.00,,2013-01-18 16:02:00,
2013-01-18 09:12:00,19.0,13.0,30.57,NNW,348,0.0,1.0,78,-99.99,,,0.00,,2013-01-18 16:12:00,
2013-01-18 09:33:00,24.0,15.0,30.53,NNW,348,0.0,1.0,66,-99.99,,,0.00,,2013-01-18 16:33:00,
2013-01-18 10:02:00,28.0,16.0,30.54,NNW,348,0.0,1.0,60,-99.99,,,-99.99,,2013-01-18 17:02:00,
2013-01-18 10:12:00,30.0,17.0,30.53,NNW,348,0.0,1.0,58,-99.99,,,0.00,,2013-01-18 17:12:00,
2013-01-18 10:23:00,30.0,17.0,30.53,NNW,348,0.0,1.0,58,-99.99,,,0.00,,2013-01-18 17:23:00,
2013-01-18 10:33:00,31.0,17.0,30.52,NNW,348,0.0,1.0,56,-99.99,,,0.00,,2013-01-18 17:33:00,
2013-01-18 10:42:00,34.0,17.0,30.52,NNW,348,1.0,2.0,50,-99.99,,,0.00,,2013-01-18 17:42:00,
2013-01-18 10:53:00,34.0,17.0,30.52,NNW,348,1.0,2.0,50,-99.99,,,0.00,,2013-01-18 17:53:00,
2013-01-18 11:03:00,36.0,18.0,30.51,NNW,348,2.0,3.0,49,-99.99,,,0.00,,2013-01-18 18:03:00,
2013-01-18 11:12:00,36.0,17.0,30.50,NNW,348,0.0,4.0,46,-99.99,,,0.00,,2013-01-18 18:12:00,
2013-01-18 11:23:00,36.0,17.0,30.50,NNW,348,0.0,4.0,46,-99.99,,,0.00,,2013-01-18 18:23:00,
2013-01-18 11:33:00,36.0,18.0,30.50,NNW,348,0.0,5.0,46,-99.99,,,-99.99,,2013-01-18 18:33:00,
2013-01-18 11:43:00,37.0,18.0,30.50,NNW,348,2.0,6.0,45,-99.99,,,0.00,,2013-01-18 18:43:00,
2013-01-18 11:53:00,37.0,18.0,30.50,NNW,348,2.0,6.0,45,-99.99,,,0.00,,2013-01-18 18:53:00,
2013-01-18 12:02:00,38.0,18.0,30.48,North,355,0.0,5.0,45,-99.99,,,0.00,,2013-01-18 19:02:00,
2013-01-18 12:12:00,38.0,18.0,30.47,North,5,2.0,8.0,44,-99.99,,,0.00,,2013-01-18 19:12:00,
2013-01-18 12:22:00,38.0,18.0,30.47,North,5,2.0,8.0,44,-99.99,,,0.00,,2013-01-18 19:22:00,
2013-01-18 12:33:00,39.0,18.0,30.45,North,360,1.0,6.0,42,-99.99,,,0.00,,2013-01-18 19:33:00,
2013-01-18 12:42:00,39.0,18.0,30.44,NE,37,7.0,9.0,41,-99.99,,,0.00,,2013-01-18 19:42:00,
2013-01-18 12:53:00,39.0,18.0,30.44,NE,37,7.0,9.0,41,-99.99,,,0.00,,2013-01-18 19:53:00,
2013-01-18 13:03:00,39.0,18.0,30.43,NE,39,3.0,7.0,42,-99.99,,,0.00,,2013-01-18 20:03:00,
2013-01-18 13:12:00,40.0,18.0,30.41,NE,42,1.0,8.0,41,-99.99,,,0.00,,2013-01-18 20:12:00,
2013-01-18 13:22:00,40.0,18.0,30.41,NE,42,1.0,8.0,41,-99.99,,,0.00,,2013-01-18 20:22:00,
2013-01-18 13:33:00,40.0,18.0,30.40,NE,42,5.0,7.0,40,-99.99,,,0.00,,2013-01-18 20:33:00,
2013-01-18 13:42:00,41.0,18.0,30.39,NE,42,2.0,8.0,39,-99.99,,,0.00,,2013-01-18 20:42:00,
2013-01-18 13:53:00,41.0,18.0,30.39,NE,42,2.0,8.0,39,-99.99,,,0.00,,2013-01-18 20:53:00,
2013-01-18 14:03:00,40.0,18.0,30.40,NE,52,6.0,10.0,41,-99.99,,,0.00,,2013-01-18 21:03:00,
2013-01-18 14:12:00,41.0,18.0,30.40,ENE,57,3.0,10.0,40,-99.99,,,-99.99,,2013-01-18 21:12:00,
2013-01-18 14:22:00,41.0,18.0,30.40,ENE,57,3.0,10.0,40,-99.99,,,-99.99,,2013-01-18 21:22:00,
2013-01-18 14:33:00,41.0,18.0,30.39,ENE,68,7.0,10.0,40,-99.99,,,0.00,,2013-01-18 21:33:00,
2013-01-18 14:42:00,41.0,19.0,30.39,ENE,71,5.0,10.0,40,-99.99,,,0.00,,2013-01-18 21:42:00,
2013-01-18 14:53:00,41.0,19.0,30.39,ENE,71,5.0,10.0,40,-99.99,,,0.00,,2013-01-18 21:53:00,
2013-01-18 15:02:00,41.0,18.0,30.39,ENE,71,6.0,9.0,40,-99.99,,,0.00,,2013-01-18 22:02:00,
2013-01-18 15:12:00,41.0,19.0,30.38,ENE,71,5.0,9.0,40,-99.99,,,0.00,,2013-01-18 22:12:00,
2013-01-18 15:22:00,41.0,19.0,30.38,ENE,71,5.0,9.0,40,-99.99,,,0.00,,2013-01-18 22:22:00,
2013-01-18 15:32:00,41.0,19.0,30.39,ENE,67,2.0,10.0,40,-99.99,,,0.00,,2013-01-18 22:32:00,
2013-01-18 15:42:00,41.0,19.0,30.39,ENE,68,4.0,10.0,40,-99.99,,,0.00,,2013-01-18 22:42:00,
2013-01-18 15:53:00,41.0,18.0,30.41,ENE,68,3.0,8.0,39,-99.99,,,0.00,,2013-01-18 22:53:00,
2013-01-18 16:02:00,41.0,18.0,30.41,ENE,68,3.0,8.0,39,-99.99,,,0.00,,2013-01-18 23:02:00,
2013-01-18 16:12:00,41.0,19.0,30.40,ENE,68,6.0,8.0,40,-99.99,,,0.00,,2013-01-18 23:12:00,
2013-01-18 16:22:00,41.0,19.0,30.40,ENE,68,6.0,8.0,40,-99.99,,,0.00,,2013-01-18 23:22:00,
2013-01-18 16:32:00,41.0,18.0,30.40,ENE,68,4.0,10.0,39,-99.99,,,0.00,,2013-01-18 23:32:00,
2013-01-18 16:42:00,41.0,18.0,30.40,ENE,68,4.0,10.0,39,-99.99,,,0.00,,2013-01-18 23:42:00,
2013-01-18 16:53:00,41.0,18.0,30.40,ENE,68,4.0,10.0,39,-99.99,,,0.00,,2013-01-18 23:53:00,
2013-01-18 17:02:00,41.0,18.0,30.42,ENE,69,3.0,7.0,39,-99.99,,,0.00,,2013-01-19 00:02:00,
2013-01-18 17:12:00,40.0,18.0,30.42,ENE,69,5.0,7.0,40,-99.99,,,0.00,,2013-01-19 00:12:00,
2013-01-18 17:22:00,40.0,18.0,30.42,ENE,69,5.0,7.0,40,-99.99,,,0.00,,2013-01-19 00:22:00,
2013-01-18 17:32:00,39.0,18.0,30.43,ENE,69,2.0,6.0,41,-99.99,,,0.00,,2013-01-19 00:32:00,
2013-01-18 17:42:00,39.0,17.0,30.43,ENE,68,2.0,6.0,41,-99.99,,,0.00,,2013-01-19 00:42:00,
2013-01-18 17:53:00,39.0,17.0,30.43,ENE,68,2.0,6.0,41,-99.99,,,0.00,,2013-01-19 00:53:00,
2013-01-18 18:02:00,37.0,16.0,30.43,ENE,69,1.0,4.0,42,-99.99,,,0.00,,2013-01-19 01:02:00,
2013-01-18 18:12:00,36.0,16.0,30.45,ENE,69,1.0,4.0,44,-99.99,,,0.00,,2013-01-19 01:12:00,
2013-01-18 18:22:00,36.0,16.0,30.45,ENE,69,1.0,4.0,44,-99.99,,,0.00,,2013-01-19 01:22:00,
2013-01-18 18:32:00,35.0,16.0,30.46,ENE,69,1.0,4.0,45,-99.99,,,0.00,,2013-01-19 01:32:00,
2013-01-18 18:42:00,34.0,16.0,30.48,ENE,68,0.0,4.0,48,-99.99,,,0.00,,2013-01-19 01:42:00,
2013-01-18 18:52:00,34.0,16.0,30.48,ENE,68,0.0,4.0,48,-99.99,,,0.00,,2013-01-19 01:52:00,
2013-01-18 19:02:00,31.0,16.0,30.50,ENE,68,0.0,2.0,52,-99.99,,,0.00,,2013-01-19 02:02:00,
2013-01-18 19:12:00,30.0,15.0,30.51,ENE,69,0.0,2.0,55,-99.99,,,0.00,,2013-01-19 02:12:00,
2013-01-18 19:22:00,30.0,15.0,30.51,ENE,69,0.0,2.0,55,-99.99,,,0.00,,2013-01-19 02:22:00,
2013-01-18 19:32:00,28.0,16.0,30.53,ENE,68,0.0,1.0,59,-99.99,,,0.00,,2013-01-19 02:32:00,
2013-01-18 19:42:00,27.0,16.0,30.55,ENE,69,0.0,1.0,62,-99.99,,,0.00,,2013-01-19 02:42:00,
2013-01-18 19:53:00,27.0,16.0,30.55,ENE,69,0.0,1.0,62,-99.99,,,0.00,,2013-01-19 02:53:00,
2013-01-18 20:02:00,26.0,16.0,30.53,ENE,69,0.0,1.0,64,-99.99,,,0.00,,2013-01-19 03:02:00,
2013-01-18 20:12:00,25.0,15.0,30.55,ENE,68,0.0,1.0,66,-99.99,,,0.00,,2013-01-19 03:12:00,
2013-01-18 20:22:00,25.0,15.0,30.55,ENE,68,0.0,1.0,66,-99.99,,,0.00,,2013-01-19 03:22:00,
2013-01-18 20:32:00,24.0,15.0,30.55,ENE,69,1.0,3.0,68,-99.99,,,0.00,,2013-01-19 03:32:00,
2013-01-18 20:43:00,24.0,15.0,30.56,ENE,69,2.0,3.0,69,-99.99,,,-99.99,,2013-01-19 03:43:00,
2013-01-18 20:52:00,24.0,15.0,30.56,ENE,69,2.0,3.0,69,-99.99,,,-99.99,,2013-01-19 03:52:00,
2013-01-18 21:02:00,24.0,15.0,30.47,ENE,69,2.0,2.0,68,-99.99,,,0.00,,2013-01-19 04:02:00,
2013-01-18 21:12:00,23.0,14.0,30.49,ENE,69,0.0,3.0,68,-99.99,,,0.00,,2013-01-19 04:12:00,
2013-01-18 21:22:00,23.0,14.0,30.49,ENE,69,0.0,3.0,68,-99.99,,,0.00,,2013-01-19 04:22:00,
2013-01-18 21:32:00,22.0,14.0,30.49,ENE,68,0.0,1.0,71,-99.99,,,0.00,,2013-01-19 04:32:00,
2013-01-18 21:42:00,22.0,14.0,30.49,ENE,69,2.0,3.0,73,-99.99,,,-99.99,,2013-01-19 04:42:00,
2013-01-18 21:52:00,22.0,14.0,30.49,ENE,69,2.0,3.0,73,-99.99,,,-99.99,,2013-01-19 04:52:00,
2013-01-18 22:03:00,22.0,14.0,30.42,ENE,69,0.0,2.0,71,-99.99,,,0.00,,2013-01-19 05:03:00,
2013-01-18 22:12:00,22.0,14.0,30.42,ENE,69,0.0,2.0,71,-99.99,,,0.00,,2013-01-19 05:12:00,
2013-01-18 22:22:00,22.0,14.0,30.42,ENE,69,0.0,2.0,71,-99.99,,,0.00,,2013-01-19 05:22:00,
2013-01-18 22:32:00,21.0,14.0,30.43,ENE,69,0.0,0.0,72,-99.99,,,0.00,,2013-01-19 05:32:00,
2013-01-18 22:42:00,21.0,13.0,30.43,ENE,69,0.0,0.0,73,-99.99,,,0.00,,2013-01-19 05:42:00,
2013-01-18 22:53:00,21.0,13.0,30.43,ENE,69,0.0,0.0,73,-99.99,,,0.00,,2013-01-19 05:53:00,
2013-01-18 23:02:00,20.0,13.0,30.42,ENE,68,0.0,0.0,74,-99.99,,,0.00,,2013-01-19 06:02:00,
2013-01-18 23:12:00,21.0,14.0,30.41,ENE,69,0.0,3.0,75,-99.99,,,0.00,,2013-01-19 06:12:00,
2013-01-18 23:22:00,21.0,14.0,30.41,ENE,69,0.0,3.0,75,-99.99,,,0.00,,2013-01-19 06:22:00,
2013-01-18 23:32:00,20.0,13.0,30.42,ENE,69,0.0,2.0,74,-99.99,,,0.00,,2013-01-19 06:32:00,
2013-01-18 23:43:00,20.0,14.0,30.42,ENE,69,0.0,2.0,75,-99.99,,,0.00,,2013-01-19 06:43:00,
2013-01-18 23:53:00,20.0,14.0,30.42,ENE,69,0.0,2.0,75,-99.99,,,0.00,,2013-01-19 06:53:00,